sensor_id;sensor_type;location;lat;lon;timestamp;P1;durP1;ratioP1;P2;durP2;ratioP2
9240;SDS011;53485;49.326;9.738;2023-04-25T00:02:06;8.83;;;7.13;;
9240;SDS011;53485;49.326;9.738;2023-04-25T00:04:32;11.23;;;7.37;;
9240;SDS011;53485;49.326;9.738;2023-04-25T00:06:59;9.40;;;7.10;;
9240;SDS011;53485;49.326;9.738;2023-04-25T00:09:28;7.50;;;6.70;;
9240;SDS011;53485;49.326;9.738;2023-04-25T00:11:54;10.30;;;7.67;;
9240;SDS011;53485;49.326;9.738;2023-04-25T00:14:21;9.60;;;7.60;;
9240;SDS011;53485;49.326;9.738;2023-04-25T00:16:47;8.27;;;7.00;;
9240;SDS011;53485;49.326;9.738;2023-04-25T00:19:13;10.63;;;7.23;;
9240;SDS011;53485;49.326;9.738;2023-04-25T00:21:40;8.17;;;6.13;;
9240;SDS011;53485;49.326;9.738;2023-04-25T00:24:07;9.37;;;6.27;;
9240;SDS011;53485;49.326;9.738;2023-04-25T00:26:33;6.50;;;5.80;;
9240;SDS011;53485;49.326;9.738;2023-04-25T00:28:59;8.27;;;5.83;;
9240;SDS011;53485;49.326;9.738;2023-04-25T00:31:26;9.60;;;6.60;;
9240;SDS011;53485;49.326;9.738;2023-04-25T00:33:52;9.13;;;6.27;;
9240;SDS011;53485;49.326;9.738;2023-04-25T00:36:19;7.73;;;6.40;;
9240;SDS011;53485;49.326;9.738;2023-04-25T00:38:45;8.83;;;6.13;;
9240;SDS011;53485;49.326;9.738;2023-04-25T00:41:12;10.53;;;6.73;;
9240;SDS011;53485;49.326;9.738;2023-04-25T00:43:38;9.20;;;6.47;;
9240;SDS011;53485;49.326;9.738;2023-04-25T00:46:05;9.00;;;6.13;;
9240;SDS011;53485;49.326;9.738;2023-04-25T00:48:31;7.30;;;6.23;;
9240;SDS011;53485;49.326;9.738;2023-04-25T00:50:58;7.77;;;6.17;;
9240;SDS011;53485;49.326;9.738;2023-04-25T00:53:24;10.20;;;5.80;;
9240;SDS011;53485;49.326;9.738;2023-04-25T00:55:50;7.13;;;5.90;;
9240;SDS011;53485;49.326;9.738;2023-04-25T00:58:17;7.33;;;6.17;;
9240;SDS011;53485;49.326;9.738;2023-04-25T01:00:44;8.90;;;6.37;;
9240;SDS011;53485;49.326;9.738;2023-04-25T01:03:10;8.63;;;6.63;;
9240;SDS011;53485;49.326;9.738;2023-04-25T01:05:36;7.10;;;6.33;;
9240;SDS011;53485;49.326;9.738;2023-04-25T01:08:02;9.60;;;6.53;;
9240;SDS011;53485;49.326;9.738;2023-04-25T01:10:29;12.13;;;6.47;;
9240;SDS011;53485;49.326;9.738;2023-04-25T01:12:55;8.60;;;6.40;;
9240;SDS011;53485;49.326;9.738;2023-04-25T01:15:22;8.17;;;6.77;;
9240;SDS011;53485;49.326;9.738;2023-04-25T01:17:48;7.63;;;6.53;;
9240;SDS011;53485;49.326;9.738;2023-04-25T01:20:15;8.37;;;6.90;;
9240;SDS011;53485;49.326;9.738;2023-04-25T01:22:41;10.87;;;7.90;;
9240;SDS011;53485;49.326;9.738;2023-04-25T01:25:07;7.50;;;6.33;;
9240;SDS011;53485;49.326;9.738;2023-04-25T01:27:33;8.03;;;6.07;;
9240;SDS011;53485;49.326;9.738;2023-04-25T01:30:00;6.87;;;5.93;;
9240;SDS011;53485;49.326;9.738;2023-04-25T01:32:26;8.10;;;5.90;;
9240;SDS011;53485;49.326;9.738;2023-04-25T01:34:53;8.33;;;6.27;;
9240;SDS011;53485;49.326;9.738;2023-04-25T01:37:19;6.73;;;5.60;;
9240;SDS011;53485;49.326;9.738;2023-04-25T01:39:46;8.50;;;6.50;;
9240;SDS011;53485;49.326;9.738;2023-04-25T01:42:12;8.57;;;6.27;;
9240;SDS011;53485;49.326;9.738;2023-04-25T01:44:38;7.40;;;6.60;;
9240;SDS011;53485;49.326;9.738;2023-04-25T01:47:05;7.20;;;5.83;;
9240;SDS011;53485;49.326;9.738;2023-04-25T01:49:31;9.33;;;6.80;;
9240;SDS011;53485;49.326;9.738;2023-04-25T01:51:58;9.27;;;6.83;;
9240;SDS011;53485;49.326;9.738;2023-04-25T01:54:24;8.70;;;6.47;;
9240;SDS011;53485;49.326;9.738;2023-04-25T01:56:51;7.67;;;6.47;;
9240;SDS011;53485;49.326;9.738;2023-04-25T01:59:18;7.13;;;6.33;;
9240;SDS011;53485;49.326;9.738;2023-04-25T02:01:44;8.17;;;6.37;;
9240;SDS011;53485;49.326;9.738;2023-04-25T02:04:10;10.20;;;6.43;;
9240;SDS011;53485;49.326;9.738;2023-04-25T02:06:37;8.10;;;6.60;;
9240;SDS011;53485;49.326;9.738;2023-04-25T02:09:03;9.97;;;6.90;;
9240;SDS011;53485;49.326;9.738;2023-04-25T02:11:30;6.93;;;6.23;;
9240;SDS011;53485;49.326;9.738;2023-04-25T02:13:57;9.87;;;7.37;;
9240;SDS011;53485;49.326;9.738;2023-04-25T02:16:23;8.20;;;7.03;;
9240;SDS011;53485;49.326;9.738;2023-04-25T02:18:50;11.47;;;6.70;;
9240;SDS011;53485;49.326;9.738;2023-04-25T02:21:16;8.17;;;6.70;;
9240;SDS011;53485;49.326;9.738;2023-04-25T02:23:43;11.10;;;7.00;;
9240;SDS011;53485;49.326;9.738;2023-04-25T02:26:09;9.00;;;6.80;;
9240;SDS011;53485;49.326;9.738;2023-04-25T02:28:35;7.47;;;6.10;;
9240;SDS011;53485;49.326;9.738;2023-04-25T02:31:02;9.93;;;7.50;;
9240;SDS011;53485;49.326;9.738;2023-04-25T02:33:29;7.57;;;6.43;;
9240;SDS011;53485;49.326;9.738;2023-04-25T02:35:55;9.77;;;7.47;;
9240;SDS011;53485;49.326;9.738;2023-04-25T02:38:22;10.37;;;6.60;;
9240;SDS011;53485;49.326;9.738;2023-04-25T02:40:49;9.70;;;7.53;;
9240;SDS011;53485;49.326;9.738;2023-04-25T02:43:15;8.93;;;7.17;;
9240;SDS011;53485;49.326;9.738;2023-04-25T02:45:42;9.67;;;7.00;;
9240;SDS011;53485;49.326;9.738;2023-04-25T02:48:09;9.60;;;7.13;;
9240;SDS011;53485;49.326;9.738;2023-04-25T02:50:35;9.27;;;7.77;;
9240;SDS011;53485;49.326;9.738;2023-04-25T02:53:02;8.70;;;6.73;;
9240;SDS011;53485;49.326;9.738;2023-04-25T02:55:28;9.37;;;7.07;;
9240;SDS011;53485;49.326;9.738;2023-04-25T02:57:55;9.23;;;7.43;;
9240;SDS011;53485;49.326;9.738;2023-04-25T03:00:22;12.33;;;8.27;;
9240;SDS011;53485;49.326;9.738;2023-04-25T03:02:48;10.70;;;7.67;;
9240;SDS011;53485;49.326;9.738;2023-04-25T03:05:15;10.07;;;7.53;;
9240;SDS011;53485;49.326;9.738;2023-04-25T03:07:41;11.17;;;8.93;;
9240;SDS011;53485;49.326;9.738;2023-04-25T03:10:08;11.07;;;7.37;;
9240;SDS011;53485;49.326;9.738;2023-04-25T03:12:35;11.83;;;8.20;;
9240;SDS011;53485;49.326;9.738;2023-04-25T03:15:01;10.77;;;8.33;;
9240;SDS011;53485;49.326;9.738;2023-04-25T03:17:28;10.27;;;7.90;;
9240;SDS011;53485;49.326;9.738;2023-04-25T03:19:54;10.93;;;7.53;;
9240;SDS011;53485;49.326;9.738;2023-04-25T03:22:21;12.00;;;8.30;;
9240;SDS011;53485;49.326;9.738;2023-04-25T03:24:47;12.33;;;8.20;;
9240;SDS011;53485;49.326;9.738;2023-04-25T03:27:13;10.40;;;7.90;;
9240;SDS011;53485;49.326;9.738;2023-04-25T03:29:40;12.67;;;7.87;;
9240;SDS011;53485;49.326;9.738;2023-04-25T03:32:07;11.20;;;8.77;;
9240;SDS011;53485;49.326;9.738;2023-04-25T03:34:33;11.20;;;8.00;;
9240;SDS011;53485;49.326;9.738;2023-04-25T03:37:00;10.10;;;7.80;;
9240;SDS011;53485;49.326;9.738;2023-04-25T03:39:26;11.50;;;8.43;;
9240;SDS011;53485;49.326;9.738;2023-04-25T03:41:53;12.50;;;8.90;;
9240;SDS011;53485;49.326;9.738;2023-04-25T03:44:19;10.70;;;8.93;;
9240;SDS011;53485;49.326;9.738;2023-04-25T03:46:46;11.00;;;8.33;;
9240;SDS011;53485;49.326;9.738;2023-04-25T03:49:13;13.90;;;9.30;;
9240;SDS011;53485;49.326;9.738;2023-04-25T03:51:39;13.37;;;9.50;;
9240;SDS011;53485;49.326;9.738;2023-04-25T03:54:05;13.67;;;9.70;;
9240;SDS011;53485;49.326;9.738;2023-04-25T03:56:32;17.27;;;11.20;;
9240;SDS011;53485;49.326;9.738;2023-04-25T03:58:58;12.80;;;10.20;;
9240;SDS011;53485;49.326;9.738;2023-04-25T04:01:25;13.83;;;10.00;;
9240;SDS011;53485;49.326;9.738;2023-04-25T04:03:52;12.50;;;9.73;;
9240;SDS011;53485;49.326;9.738;2023-04-25T04:06:18;13.63;;;9.70;;
9240;SDS011;53485;49.326;9.738;2023-04-25T04:08:44;15.50;;;9.47;;
9240;SDS011;53485;49.326;9.738;2023-04-25T04:11:11;15.30;;;10.83;;
9240;SDS011;53485;49.326;9.738;2023-04-25T04:13:37;15.97;;;10.27;;
9240;SDS011;53485;49.326;9.738;2023-04-25T04:16:04;13.83;;;9.73;;
9240;SDS011;53485;49.326;9.738;2023-04-25T04:18:31;16.03;;;11.03;;
9240;SDS011;53485;49.326;9.738;2023-04-25T04:20:57;17.23;;;10.37;;
9240;SDS011;53485;49.326;9.738;2023-04-25T04:23:24;16.17;;;10.20;;
9240;SDS011;53485;49.326;9.738;2023-04-25T04:25:50;13.83;;;10.23;;
9240;SDS011;53485;49.326;9.738;2023-04-25T04:28:17;14.60;;;11.07;;
9240;SDS011;53485;49.326;9.738;2023-04-25T04:30:44;15.13;;;10.53;;
9240;SDS011;53485;49.326;9.738;2023-04-25T04:33:10;15.63;;;10.67;;
9240;SDS011;53485;49.326;9.738;2023-04-25T04:35:36;17.13;;;11.67;;
9240;SDS011;53485;49.326;9.738;2023-04-25T04:38:03;16.13;;;11.43;;
9240;SDS011;53485;49.326;9.738;2023-04-25T04:40:30;17.33;;;10.77;;
9240;SDS011;53485;49.326;9.738;2023-04-25T04:42:56;18.30;;;12.50;;
9240;SDS011;53485;49.326;9.738;2023-04-25T04:45:23;21.80;;;13.00;;
9240;SDS011;53485;49.326;9.738;2023-04-25T04:47:49;19.17;;;11.87;;
9240;SDS011;53485;49.326;9.738;2023-04-25T04:50:15;18.77;;;13.20;;
9240;SDS011;53485;49.326;9.738;2023-04-25T04:52:41;18.40;;;12.27;;
9240;SDS011;53485;49.326;9.738;2023-04-25T04:55:07;18.07;;;11.90;;
9240;SDS011;53485;49.326;9.738;2023-04-25T04:57:34;21.27;;;13.13;;
9240;SDS011;53485;49.326;9.738;2023-04-25T05:00:00;19.43;;;12.27;;
9240;SDS011;53485;49.326;9.738;2023-04-25T05:02:27;20.60;;;12.90;;
9240;SDS011;53485;49.326;9.738;2023-04-25T05:04:53;19.63;;;13.10;;
9240;SDS011;53485;49.326;9.738;2023-04-25T05:07:20;20.60;;;13.47;;
9240;SDS011;53485;49.326;9.738;2023-04-25T05:09:46;18.37;;;12.27;;
9240;SDS011;53485;49.326;9.738;2023-04-25T05:12:13;21.73;;;13.00;;
9240;SDS011;53485;49.326;9.738;2023-04-25T05:14:40;20.17;;;13.90;;
9240;SDS011;53485;49.326;9.738;2023-04-25T05:17:06;21.30;;;12.60;;
9240;SDS011;53485;49.326;9.738;2023-04-25T05:19:33;21.60;;;12.77;;
9240;SDS011;53485;49.326;9.738;2023-04-25T05:21:59;21.97;;;13.80;;
9240;SDS011;53485;49.326;9.738;2023-04-25T05:24:26;19.43;;;12.07;;
9240;SDS011;53485;49.326;9.738;2023-04-25T05:26:53;19.77;;;11.73;;
9240;SDS011;53485;49.326;9.738;2023-04-25T05:29:19;20.83;;;12.77;;
9240;SDS011;53485;49.326;9.738;2023-04-25T05:31:46;19.20;;;10.70;;
9240;SDS011;53485;49.326;9.738;2023-04-25T05:34:12;15.47;;;10.23;;
9240;SDS011;53485;49.326;9.738;2023-04-25T05:36:39;16.90;;;11.07;;
9240;SDS011;53485;49.326;9.738;2023-04-25T05:39:06;15.77;;;10.77;;
9240;SDS011;53485;49.326;9.738;2023-04-25T05:41:32;16.03;;;10.83;;
9240;SDS011;53485;49.326;9.738;2023-04-25T05:43:59;15.57;;;11.50;;
9240;SDS011;53485;49.326;9.738;2023-04-25T05:46:25;16.67;;;11.53;;
9240;SDS011;53485;49.326;9.738;2023-04-25T05:48:52;16.23;;;10.60;;
9240;SDS011;53485;49.326;9.738;2023-04-25T05:51:19;14.43;;;10.13;;
9240;SDS011;53485;49.326;9.738;2023-04-25T05:53:45;13.77;;;10.37;;
9240;SDS011;53485;49.326;9.738;2023-04-25T05:56:12;13.13;;;10.03;;
9240;SDS011;53485;49.326;9.738;2023-04-25T05:58:39;15.80;;;10.33;;
9240;SDS011;53485;49.326;9.738;2023-04-25T06:01:05;15.43;;;10.47;;
9240;SDS011;53485;49.326;9.738;2023-04-25T06:03:32;14.53;;;9.90;;
9240;SDS011;53485;49.326;9.738;2023-04-25T06:05:58;17.33;;;10.60;;
9240;SDS011;53485;49.326;9.738;2023-04-25T06:08:25;17.50;;;12.20;;
9240;SDS011;53485;49.326;9.738;2023-04-25T06:10:51;15.87;;;11.03;;
9240;SDS011;53485;49.326;9.738;2023-04-25T06:13:18;15.17;;;11.20;;
9240;SDS011;53485;49.326;9.738;2023-04-25T06:15:44;15.43;;;11.00;;
9240;SDS011;53485;49.326;9.738;2023-04-25T06:18:11;14.27;;;10.60;;
9240;SDS011;53485;49.326;9.738;2023-04-25T06:20:37;14.93;;;11.80;;
9240;SDS011;53485;49.326;9.738;2023-04-25T06:23:04;15.07;;;9.80;;
9240;SDS011;53485;49.326;9.738;2023-04-25T06:25:31;14.73;;;10.57;;
9240;SDS011;53485;49.326;9.738;2023-04-25T06:27:57;13.20;;;10.33;;
9240;SDS011;53485;49.326;9.738;2023-04-25T06:30:24;12.43;;;9.57;;
9240;SDS011;53485;49.326;9.738;2023-04-25T06:32:50;13.50;;;9.70;;
9240;SDS011;53485;49.326;9.738;2023-04-25T06:35:16;13.73;;;9.80;;
9240;SDS011;53485;49.326;9.738;2023-04-25T06:37:43;13.90;;;9.10;;
9240;SDS011;53485;49.326;9.738;2023-04-25T06:40:10;9.37;;;7.90;;
9240;SDS011;53485;49.326;9.738;2023-04-25T06:42:36;10.17;;;8.50;;
9240;SDS011;53485;49.326;9.738;2023-04-25T06:45:03;10.10;;;7.77;;
9240;SDS011;53485;49.326;9.738;2023-04-25T06:47:30;9.00;;;8.10;;
9240;SDS011;53485;49.326;9.738;2023-04-25T06:49:56;10.60;;;8.30;;
9240;SDS011;53485;49.326;9.738;2023-04-25T06:52:23;11.43;;;7.97;;
9240;SDS011;53485;49.326;9.738;2023-04-25T06:54:50;11.10;;;7.87;;
9240;SDS011;53485;49.326;9.738;2023-04-25T06:57:16;10.53;;;8.13;;
9240;SDS011;53485;49.326;9.738;2023-04-25T06:59:43;8.97;;;7.83;;
9240;SDS011;53485;49.326;9.738;2023-04-25T07:02:10;11.97;;;8.53;;
9240;SDS011;53485;49.326;9.738;2023-04-25T07:04:36;11.73;;;8.77;;
9240;SDS011;53485;49.326;9.738;2023-04-25T07:07:03;11.00;;;8.93;;
9240;SDS011;53485;49.326;9.738;2023-04-25T07:09:30;10.33;;;9.00;;
9240;SDS011;53485;49.326;9.738;2023-04-25T07:11:56;10.57;;;8.93;;
9240;SDS011;53485;49.326;9.738;2023-04-25T07:14:23;15.93;;;8.87;;
9240;SDS011;53485;49.326;9.738;2023-04-25T07:16:49;13.60;;;10.03;;
9240;SDS011;53485;49.326;9.738;2023-04-25T07:19:16;15.07;;;10.87;;
9240;SDS011;53485;49.326;9.738;2023-04-25T07:21:43;11.17;;;8.60;;
9240;SDS011;53485;49.326;9.738;2023-04-25T07:24:09;12.10;;;9.67;;
9240;SDS011;53485;49.326;9.738;2023-04-25T07:26:36;12.93;;;8.73;;
9240;SDS011;53485;49.326;9.738;2023-04-25T07:29:03;10.03;;;7.87;;
9240;SDS011;53485;49.326;9.738;2023-04-25T07:31:29;11.53;;;8.20;;
9240;SDS011;53485;49.326;9.738;2023-04-25T07:33:56;9.57;;;7.93;;
9240;SDS011;53485;49.326;9.738;2023-04-25T07:36:23;8.80;;;7.70;;
9240;SDS011;53485;49.326;9.738;2023-04-25T07:38:49;12.70;;;8.50;;
9240;SDS011;53485;49.326;9.738;2023-04-25T07:41:16;12.07;;;8.13;;
9240;SDS011;53485;49.326;9.738;2023-04-25T07:43:42;13.10;;;8.70;;
9240;SDS011;53485;49.326;9.738;2023-04-25T07:46:09;10.27;;;7.83;;
9240;SDS011;53485;49.326;9.738;2023-04-25T07:48:36;10.50;;;8.13;;
9240;SDS011;53485;49.326;9.738;2023-04-25T07:51:02;8.70;;;7.50;;
9240;SDS011;53485;49.326;9.738;2023-04-25T07:53:29;9.47;;;7.77;;
9240;SDS011;53485;49.326;9.738;2023-04-25T07:55:55;13.10;;;7.87;;
9240;SDS011;53485;49.326;9.738;2023-04-25T07:58:22;10.90;;;8.10;;
9240;SDS011;53485;49.326;9.738;2023-04-25T08:00:48;8.77;;;7.33;;
9240;SDS011;53485;49.326;9.738;2023-04-25T08:03:15;8.53;;;7.47;;
9240;SDS011;53485;49.326;9.738;2023-04-25T08:05:41;15.77;;;10.43;;
9240;SDS011;53485;49.326;9.738;2023-04-25T08:08:08;11.27;;;8.93;;
9240;SDS011;53485;49.326;9.738;2023-04-25T08:10:34;8.60;;;7.33;;
9240;SDS011;53485;49.326;9.738;2023-04-25T08:13:01;9.07;;;8.07;;
9240;SDS011;53485;49.326;9.738;2023-04-25T08:15:27;7.87;;;6.90;;
9240;SDS011;53485;49.326;9.738;2023-04-25T08:17:54;7.13;;;6.40;;
9240;SDS011;53485;49.326;9.738;2023-04-25T08:20:21;6.60;;;6.00;;
9240;SDS011;53485;49.326;9.738;2023-04-25T08:22:47;8.43;;;6.53;;
9240;SDS011;53485;49.326;9.738;2023-04-25T08:25:14;6.50;;;5.57;;
9240;SDS011;53485;49.326;9.738;2023-04-25T08:27:40;6.97;;;6.07;;
9240;SDS011;53485;49.326;9.738;2023-04-25T08:30:07;8.93;;;6.47;;
9240;SDS011;53485;49.326;9.738;2023-04-25T08:32:34;7.13;;;6.40;;
9240;SDS011;53485;49.326;9.738;2023-04-25T08:35:00;6.57;;;5.20;;
9240;SDS011;53485;49.326;9.738;2023-04-25T08:37:26;7.00;;;5.67;;
9240;SDS011;53485;49.326;9.738;2023-04-25T08:39:53;7.60;;;6.40;;
9240;SDS011;53485;49.326;9.738;2023-04-25T08:42:19;11.43;;;6.87;;
9240;SDS011;53485;49.326;9.738;2023-04-25T08:44:46;7.27;;;6.27;;
9240;SDS011;53485;49.326;9.738;2023-04-25T08:47:12;8.00;;;5.77;;
9240;SDS011;53485;49.326;9.738;2023-04-25T08:49:39;5.33;;;4.80;;
9240;SDS011;53485;49.326;9.738;2023-04-25T08:52:05;8.63;;;4.83;;
9240;SDS011;53485;49.326;9.738;2023-04-25T08:54:31;5.60;;;4.47;;
9240;SDS011;53485;49.326;9.738;2023-04-25T08:57:00;5.30;;;4.23;;
9240;SDS011;53485;49.326;9.738;2023-04-25T08:59:24;10.30;;;7.03;;
9240;SDS011;53485;49.326;9.738;2023-04-25T09:01:50;12.60;;;7.20;;
9240;SDS011;53485;49.326;9.738;2023-04-25T09:04:17;10.07;;;6.83;;
9240;SDS011;53485;49.326;9.738;2023-04-25T09:06:43;6.80;;;4.77;;
9240;SDS011;53485;49.326;9.738;2023-04-25T09:09:10;4.47;;;4.07;;
9240;SDS011;53485;49.326;9.738;2023-04-25T09:11:36;3.53;;;2.90;;
9240;SDS011;53485;49.326;9.738;2023-04-25T09:16:34;2.30;;;1.90;;
9240;SDS011;53485;49.326;9.738;2023-04-25T09:19:01;3.03;;;2.33;;
9240;SDS011;53485;49.326;9.738;2023-04-25T09:21:27;3.50;;;3.30;;
9240;SDS011;53485;49.326;9.738;2023-04-25T09:23:54;5.00;;;3.27;;
9240;SDS011;53485;49.326;9.738;2023-04-25T09:26:20;5.93;;;2.80;;
9240;SDS011;53485;49.326;9.738;2023-04-25T09:28:46;6.17;;;2.03;;
9240;SDS011;53485;49.326;9.738;2023-04-25T09:31:21;2.50;;;1.53;;
9240;SDS011;53485;49.326;9.738;2023-04-25T09:33:40;2.70;;;1.90;;
9240;SDS011;53485;49.326;9.738;2023-04-25T09:36:07;2.60;;;2.20;;
9240;SDS011;53485;49.326;9.738;2023-04-25T09:38:34;2.73;;;1.90;;
9240;SDS011;53485;49.326;9.738;2023-04-25T09:40:58;4.27;;;2.40;;
9240;SDS011;53485;49.326;9.738;2023-04-25T09:43:25;1.70;;;1.60;;
9240;SDS011;53485;49.326;9.738;2023-04-25T09:45:52;6.30;;;2.13;;
9240;SDS011;53485;49.326;9.738;2023-04-25T09:48:18;2.20;;;2.00;;
9240;SDS011;53485;49.326;9.738;2023-04-25T09:50:43;2.23;;;1.80;;
9240;SDS011;53485;49.326;9.738;2023-04-25T09:53:10;2.43;;;1.80;;
9240;SDS011;53485;49.326;9.738;2023-04-25T09:55:36;3.27;;;2.10;;
9240;SDS011;53485;49.326;9.738;2023-04-25T09:58:04;3.60;;;1.73;;
9240;SDS011;53485;49.326;9.738;2023-04-25T10:00:29;3.37;;;1.80;;
9240;SDS011;53485;49.326;9.738;2023-04-25T10:02:55;2.60;;;1.80;;
9240;SDS011;53485;49.326;9.738;2023-04-25T10:05:21;2.47;;;1.93;;
9240;SDS011;53485;49.326;9.738;2023-04-25T10:07:48;2.17;;;1.90;;
9240;SDS011;53485;49.326;9.738;2023-04-25T10:10:14;4.50;;;1.93;;
9240;SDS011;53485;49.326;9.738;2023-04-25T10:12:40;3.07;;;1.80;;
9240;SDS011;53485;49.326;9.738;2023-04-25T10:15:07;3.97;;;1.60;;
9240;SDS011;53485;49.326;9.738;2023-04-25T10:17:33;2.03;;;1.63;;
9240;SDS011;53485;49.326;9.738;2023-04-25T10:20:00;9.50;;;2.40;;
9240;SDS011;53485;49.326;9.738;2023-04-25T10:22:28;3.17;;;1.53;;
9240;SDS011;53485;49.326;9.738;2023-04-25T10:24:52;3.13;;;1.97;;
9240;SDS011;53485;49.326;9.738;2023-04-25T10:27:18;4.60;;;1.57;;
9240;SDS011;53485;49.326;9.738;2023-04-25T10:29:44;1.67;;;1.47;;
9240;SDS011;53485;49.326;9.738;2023-04-25T10:32:11;1.67;;;1.57;;
9240;SDS011;53485;49.326;9.738;2023-04-25T10:34:41;1.60;;;1.50;;
9240;SDS011;53485;49.326;9.738;2023-04-25T10:37:09;4.47;;;2.00;;
9240;SDS011;53485;49.326;9.738;2023-04-25T10:39:34;4.80;;;1.70;;
9240;SDS011;53485;49.326;9.738;2023-04-25T10:42:01;3.13;;;1.77;;
9240;SDS011;53485;49.326;9.738;2023-04-25T10:44:27;2.83;;;1.70;;
9240;SDS011;53485;49.326;9.738;2023-04-25T10:46:54;2.37;;;1.50;;
9240;SDS011;53485;49.326;9.738;2023-04-25T10:51:58;4.00;;;1.57;;
9240;SDS011;53485;49.326;9.738;2023-04-25T10:54:17;5.23;;;2.10;;
9240;SDS011;53485;49.326;9.738;2023-04-25T10:56:43;3.43;;;2.23;;
9240;SDS011;53485;49.326;9.738;2023-04-25T10:59:11;1.90;;;1.40;;
9240;SDS011;53485;49.326;9.738;2023-04-25T11:01:38;3.53;;;1.60;;
9240;SDS011;53485;49.326;9.738;2023-04-25T11:04:04;3.23;;;2.00;;
9240;SDS011;53485;49.326;9.738;2023-04-25T11:09:02;3.07;;;1.87;;
9240;SDS011;53485;49.326;9.738;2023-04-25T11:11:28;2.93;;;1.73;;
9240;SDS011;53485;49.326;9.738;2023-04-25T11:13:54;2.93;;;1.40;;
9240;SDS011;53485;49.326;9.738;2023-04-25T11:16:23;1.50;;;1.40;;
9240;SDS011;53485;49.326;9.738;2023-04-25T11:18:47;2.27;;;1.20;;
9240;SDS011;53485;49.326;9.738;2023-04-25T11:21:14;2.47;;;1.67;;
9240;SDS011;53485;49.326;9.738;2023-04-25T11:23:40;2.27;;;1.50;;
9240;SDS011;53485;49.326;9.738;2023-04-25T11:26:07;14.47;;;13.03;;
9240;SDS011;53485;49.326;9.738;2023-04-25T11:28:33;2.97;;;2.37;;
9240;SDS011;53485;49.326;9.738;2023-04-25T11:31:00;3.70;;;2.10;;
9240;SDS011;53485;49.326;9.738;2023-04-25T11:33:26;3.27;;;1.80;;
9240;SDS011;53485;49.326;9.738;2023-04-25T11:35:53;7.13;;;2.03;;
9240;SDS011;53485;49.326;9.738;2023-04-25T11:38:19;2.60;;;2.37;;
9240;SDS011;53485;49.326;9.738;2023-04-25T11:40:49;2.77;;;1.70;;
9240;SDS011;53485;49.326;9.738;2023-04-25T11:43:12;1.63;;;1.10;;
9240;SDS011;53485;49.326;9.738;2023-04-25T11:45:38;1.73;;;1.50;;
9240;SDS011;53485;49.326;9.738;2023-04-25T11:48:05;1.80;;;1.60;;
9240;SDS011;53485;49.326;9.738;2023-04-25T11:50:31;2.50;;;1.40;;
9240;SDS011;53485;49.326;9.738;2023-04-25T11:52:58;4.10;;;1.90;;
9240;SDS011;53485;49.326;9.738;2023-04-25T11:55:24;2.10;;;1.67;;
9240;SDS011;53485;49.326;9.738;2023-04-25T11:57:51;3.80;;;1.30;;
9240;SDS011;53485;49.326;9.738;2023-04-25T12:00:18;8.87;;;1.63;;
9240;SDS011;53485;49.326;9.738;2023-04-25T12:02:45;2.40;;;1.50;;
9240;SDS011;53485;49.326;9.738;2023-04-25T12:05:11;2.70;;;1.20;;
9240;SDS011;53485;49.326;9.738;2023-04-25T12:07:37;2.50;;;1.43;;
9240;SDS011;53485;49.326;9.738;2023-04-25T12:10:05;2.70;;;1.60;;
9240;SDS011;53485;49.326;9.738;2023-04-25T12:12:33;6.47;;;1.47;;
9240;SDS011;53485;49.326;9.738;2023-04-25T12:15:07;4.70;;;1.47;;
9240;SDS011;53485;49.326;9.738;2023-04-25T12:17:25;1.63;;;1.40;;
9240;SDS011;53485;49.326;9.738;2023-04-25T12:19:51;3.20;;;1.43;;
9240;SDS011;53485;49.326;9.738;2023-04-25T12:22:20;1.70;;;1.60;;
9240;SDS011;53485;49.326;9.738;2023-04-25T12:24:45;3.10;;;1.40;;
9240;SDS011;53485;49.326;9.738;2023-04-25T12:27:13;1.93;;;1.50;;
9240;SDS011;53485;49.326;9.738;2023-04-25T12:29:37;2.10;;;1.23;;
9240;SDS011;53485;49.326;9.738;2023-04-25T12:32:04;4.03;;;1.50;;
9240;SDS011;53485;49.326;9.738;2023-04-25T12:34:31;2.50;;;1.67;;
9240;SDS011;53485;49.326;9.738;2023-04-25T12:36:57;1.63;;;1.10;;
9240;SDS011;53485;49.326;9.738;2023-04-25T12:39:24;1.43;;;1.33;;
9240;SDS011;53485;49.326;9.738;2023-04-25T12:41:50;1.40;;;1.10;;
9240;SDS011;53485;49.326;9.738;2023-04-25T12:44:16;2.47;;;1.63;;
9240;SDS011;53485;49.326;9.738;2023-04-25T12:46:43;3.43;;;1.43;;
9240;SDS011;53485;49.326;9.738;2023-04-25T12:49:09;1.93;;;1.50;;
9240;SDS011;53485;49.326;9.738;2023-04-25T12:51:35;2.03;;;1.37;;
9240;SDS011;53485;49.326;9.738;2023-04-25T12:54:02;1.93;;;1.80;;
9240;SDS011;53485;49.326;9.738;2023-04-25T12:56:28;3.07;;;1.80;;
9240;SDS011;53485;49.326;9.738;2023-04-25T12:58:54;4.33;;;1.73;;
9240;SDS011;53485;49.326;9.738;2023-04-25T13:01:21;4.10;;;2.13;;
9240;SDS011;53485;49.326;9.738;2023-04-25T13:03:47;3.57;;;2.30;;
9240;SDS011;53485;49.326;9.738;2023-04-25T13:06:14;3.70;;;1.67;;
9240;SDS011;53485;49.326;9.738;2023-04-25T13:08:40;2.53;;;1.73;;
9240;SDS011;53485;49.326;9.738;2023-04-25T13:11:06;2.87;;;1.77;;
9240;SDS011;53485;49.326;9.738;2023-04-25T13:13:32;4.67;;;2.30;;
9240;SDS011;53485;49.326;9.738;2023-04-25T13:15:59;2.30;;;1.87;;
9240;SDS011;53485;49.326;9.738;2023-04-25T13:18:25;4.60;;;2.03;;
9240;SDS011;53485;49.326;9.738;2023-04-25T13:20:52;3.27;;;2.30;;
9240;SDS011;53485;49.326;9.738;2023-04-25T13:23:18;2.67;;;2.03;;
9240;SDS011;53485;49.326;9.738;2023-04-25T13:25:44;6.47;;;2.50;;
9240;SDS011;53485;49.326;9.738;2023-04-25T13:28:10;5.43;;;2.33;;
9240;SDS011;53485;49.326;9.738;2023-04-25T13:30:37;4.07;;;1.90;;
9240;SDS011;53485;49.326;9.738;2023-04-25T13:33:03;6.43;;;2.87;;
9240;SDS011;53485;49.326;9.738;2023-04-25T13:35:30;4.57;;;2.07;;
9240;SDS011;53485;49.326;9.738;2023-04-25T13:37:56;4.43;;;2.70;;
9240;SDS011;53485;49.326;9.738;2023-04-25T13:40:23;7.37;;;2.93;;
9240;SDS011;53485;49.326;9.738;2023-04-25T13:42:50;3.70;;;2.53;;
9240;SDS011;53485;49.326;9.738;2023-04-25T13:45:16;6.23;;;2.67;;
9240;SDS011;53485;49.326;9.738;2023-04-25T13:47:42;5.00;;;2.33;;
9240;SDS011;53485;49.326;9.738;2023-04-25T13:50:09;5.97;;;2.80;;
9240;SDS011;53485;49.326;9.738;2023-04-25T13:52:36;3.27;;;2.93;;
9240;SDS011;53485;49.326;9.738;2023-04-25T13:55:02;7.13;;;3.20;;
9240;SDS011;53485;49.326;9.738;2023-04-25T13:57:30;3.50;;;2.70;;
9240;SDS011;53485;49.326;9.738;2023-04-25T13:59:57;4.77;;;3.40;;
9240;SDS011;53485;49.326;9.738;2023-04-25T14:02:24;6.37;;;3.90;;
9240;SDS011;53485;49.326;9.738;2023-04-25T14:04:50;5.30;;;3.10;;
9240;SDS011;53485;49.326;9.738;2023-04-25T14:07:17;8.03;;;3.53;;
9240;SDS011;53485;49.326;9.738;2023-04-25T14:09:43;6.47;;;3.37;;
9240;SDS011;53485;49.326;9.738;2023-04-25T14:12:09;5.03;;;3.27;;
9240;SDS011;53485;49.326;9.738;2023-04-25T14:14:36;5.13;;;3.10;;
9240;SDS011;53485;49.326;9.738;2023-04-25T14:17:02;4.80;;;2.30;;
9240;SDS011;53485;49.326;9.738;2023-04-25T14:19:28;4.73;;;3.13;;
9240;SDS011;53485;49.326;9.738;2023-04-25T14:21:54;5.47;;;2.80;;
9240;SDS011;53485;49.326;9.738;2023-04-25T14:24:21;3.43;;;2.70;;
9240;SDS011;53485;49.326;9.738;2023-04-25T14:26:47;4.83;;;2.70;;
9240;SDS011;53485;49.326;9.738;2023-04-25T14:29:14;4.47;;;2.77;;
9240;SDS011;53485;49.326;9.738;2023-04-25T14:31:40;3.87;;;3.17;;
9240;SDS011;53485;49.326;9.738;2023-04-25T14:34:07;5.20;;;2.70;;
9240;SDS011;53485;49.326;9.738;2023-04-25T14:36:33;4.43;;;2.80;;
9240;SDS011;53485;49.326;9.738;2023-04-25T14:38:59;5.87;;;3.80;;
9240;SDS011;53485;49.326;9.738;2023-04-25T14:41:26;3.00;;;2.60;;
9240;SDS011;53485;49.326;9.738;2023-04-25T14:43:52;6.73;;;3.13;;
9240;SDS011;53485;49.326;9.738;2023-04-25T14:46:19;5.00;;;2.30;;
9240;SDS011;53485;49.326;9.738;2023-04-25T14:48:45;4.63;;;2.67;;
9240;SDS011;53485;49.326;9.738;2023-04-25T14:51:11;4.17;;;2.40;;
9240;SDS011;53485;49.326;9.738;2023-04-25T14:53:38;4.80;;;2.60;;
9240;SDS011;53485;49.326;9.738;2023-04-25T14:56:04;2.67;;;2.27;;